Thorhild, Canada
Current Conditions -  °F | °C
As of 2:09 PM on Saturday 22 Nov 2014 (Local Time) from CYED Reporting Station
Light Snow Light Snow  
Wind Chill: 12°   Ceiling: 900
Heat Index: 23°   Visibility: 2mi
Dew Point: 19°   Wind: 10mph
Humidity: 86%   Direction: 10°N
Pressure: 29.3"   Gusts: NA
Location:  54.15°N, 113.12°W
Report Text: CYED 222109Z AUTO 01009KT 2SM -SN VV009 M05/M07 A2930
Loading
Personal Weather Stations






























Interactive Weather Map New forecast layout! Learn more

10-Day Weather Forecast

Advertisements
Track Severe Weather on mobile